Time;durP1;ratioP1;P1;durP2;ratioP2;P2;SDS_P1;SDS_P2;PMS_P1;PMS_P2;Temp;Humidity;BMP_temperature;BMP_pressure;BME280_temperature;BME280_humidity;BME280_pressure;Samples;Min_cycle;Max_cycle;Signal;HPM_P1;HPM_P2
2023/08/03 00:00:37;;;;;;;13.77;4.85;;;24.90;90.60;;;;;;5055880;28;20020;-77
2023/08/03 00:03:04;;;;;;;9.77;4.50;;;24.90;90.60;;;;;;5072566;28;20025;-77
2023/08/03 00:05:30;;;;;;;11.20;4.30;;;24.90;90.50;;;;;;5072905;28;20388;-77
2023/08/03 00:07:56;;;;;;;7.03;4.60;;;24.90;90.50;;;;;;5072509;28;20029;-77
2023/08/03 00:10:22;;;;;;;12.88;4.65;;;24.90;90.50;;;;;;5055073;28;20024;-77
2023/08/03 00:12:49;;;;;;;10.40;4.68;;;24.90;90.50;;;;;;5072259;28;20039;-77
2023/08/03 00:15:16;;;;;;;11.55;4.70;;;24.90;90.50;;;;;;5072249;28;20029;-77
2023/08/03 00:17:42;;;;;;;14.00;4.70;;;24.90;90.60;;;;;;5072097;28;20033;-77
2023/08/03 00:20:09;;;;;;;13.57;4.45;;;24.90;90.50;;;;;;5054957;28;20052;-76
2023/08/03 00:22:35;;;;;;;14.10;5.13;;;24.90;90.70;;;;;;5072397;28;20025;-77
2023/08/03 00:25:03;;;;;;;19.10;4.60;;;24.90;90.40;;;;;;5072776;28;20021;-76
2023/08/03 00:27:29;;;;;;;11.23;4.60;;;24.90;90.50;;;;;;5072514;28;20019;-78
2023/08/03 00:29:55;;;;;;;9.80;4.40;;;24.90;90.60;;;;;;5072323;28;20032;-77
2023/08/03 00:32:21;;;;;;;10.75;4.43;;;24.90;90.60;;;;;;5072741;28;20111;-77
2023/08/03 00:34:47;;;;;;;9.75;4.20;;;24.80;90.50;;;;;;5072194;28;20020;-77
2023/08/03 00:37:14;;;;;;;12.38;4.47;;;24.80;90.50;;;;;;5072562;28;20094;-77
2023/08/03 00:39:40;;;;;;;12.23;4.60;;;24.90;90.50;;;;;;5072592;28;20032;-77
2023/08/03 00:42:06;;;;;;;12.25;4.57;;;24.80;90.40;;;;;;5072034;28;20051;-76
2023/08/03 00:44:32;;;;;;;8.73;3.97;;;24.80;90.50;;;;;;5071251;28;20021;-78
2023/08/03 00:46:58;;;;;;;11.20;4.47;;;24.80;90.60;;;;;;5073021;28;20028;-77
2023/08/03 00:49:29;;;;;;;6.85;3.92;;;24.80;90.60;;;;;;5071312;28;20016;-77
2023/08/03 00:51:56;;;;;;;11.13;4.15;;;24.80;90.60;;;;;;5071787;28;20032;-78
2023/08/03 00:54:22;;;;;;;10.32;4.40;;;24.80;90.60;;;;;;5072835;28;20067;-77
2023/08/03 00:56:47;;;;;;;13.38;4.32;;;24.80;90.50;;;;;;5053343;28;20534;-77
2023/08/03 00:59:13;;;;;;;10.55;3.95;;;24.80;90.60;;;;;;5068591;28;20384;-77
2023/08/03 01:01:40;;;;;;;11.15;4.70;;;24.80;90.60;;;;;;5069735;28;20154;-76
2023/08/03 01:04:06;;;;;;;13.90;4.90;;;24.80;90.60;;;;;;5069647;28;20029;-77
2023/08/03 01:06:32;;;;;;;9.02;4.07;;;24.70;90.60;;;;;;5071735;28;20021;-77
2023/08/03 01:09:00;;;;;;;8.35;4.30;;;24.80;90.60;;;;;;5071440;28;20056;-77
2023/08/03 01:11:27;;;;;;;12.02;4.18;;;24.70;90.60;;;;;;5070932;28;20485;-77
2023/08/03 01:13:53;;;;;;;11.50;4.32;;;24.80;90.70;;;;;;5069491;28;20605;-77
2023/08/03 01:16:19;;;;;;;9.68;4.55;;;24.70;90.70;;;;;;5071984;28;20048;-76
2023/08/03 01:18:45;;;;;;;11.95;5.05;;;24.70;90.70;;;;;;5071771;28;20063;-76
2023/08/03 01:21:14;;;;;;;8.63;4.30;;;24.70;90.80;;;;;;5068926;28;20499;-77
2023/08/03 01:23:39;;;;;;;11.15;4.47;;;24.70;90.80;;;;;;5053231;28;20487;-77
2023/08/03 01:26:05;;;;;;;11.07;4.15;;;24.70;90.80;;;;;;5069432;28;20017;-77
2023/08/03 01:28:31;;;;;;;13.43;4.43;;;24.70;90.80;;;;;;5072139;28;20111;-77
2023/08/03 01:30:57;;;;;;;9.63;3.92;;;24.70;90.90;;;;;;5052994;28;20020;-77
2023/08/03 01:33:23;;;;;;;14.20;4.60;;;24.70;90.80;;;;;;5071597;28;20037;-77
2023/08/03 01:35:51;;;;;;;12.60;4.80;;;24.70;90.90;;;;;;5070494;28;20471;-77
2023/08/03 01:38:16;;;;;;;14.07;4.68;;;24.60;91.00;;;;;;5069335;28;20530;-76
2023/08/03 01:40:42;;;;;;;12.50;4.13;;;24.60;91.00;;;;;;5051607;28;20025;-77
2023/08/03 01:43:08;;;;;;;8.30;4.10;;;24.70;91.10;;;;;;5072280;28;20049;-77
2023/08/03 01:45:34;;;;;;;12.70;3.58;;;24.60;91.00;;;;;;5070429;28;20013;-77
2023/08/03 01:48:00;;;;;;;13.95;4.60;;;24.60;91.00;;;;;;5071846;28;20032;-77
2023/08/03 01:50:26;;;;;;;15.05;5.22;;;24.60;91.00;;;;;;5070812;28;20021;-77
2023/08/03 01:52:51;;;;;;;13.40;4.68;;;24.60;91.10;;;;;;5069726;28;20032;-77
2023/08/03 01:55:17;;;;;;;13.73;4.88;;;24.60;91.10;;;;;;5071698;28;20012;-76
2023/08/03 01:57:44;;;;;;;9.98;4.57;;;24.50;91.10;;;;;;5070084;28;20060;-77
2023/08/03 02:00:10;;;;;;;13.60;4.65;;;24.60;91.30;;;;;;5070034;28;20491;-77
2023/08/03 02:02:36;;;;;;;8.85;4.63;;;24.50;91.30;;;;;;5051857;28;20430;-77
2023/08/03 02:05:02;;;;;;;12.38;4.78;;;24.50;91.40;;;;;;5072230;28;20033;-77
2023/08/03 02:07:55;;;;;;;13.15;4.40;;;24.50;91.40;;;;;;5072148;28;20020;-76
2023/08/03 02:10:24;;;;;;;12.55;4.65;;;24.50;91.50;;;;;;5073879;28;20033;-77
2023/08/03 02:12:50;;;;;;;14.35;4.70;;;24.50;91.60;;;;;;5074421;28;20035;-77
2023/08/03 02:15:16;;;;;;;12.45;4.88;;;24.50;91.60;;;;;;5074862;28;20055;-77
2023/08/03 02:17:43;;;;;;;11.27;4.70;;;24.50;91.80;;;;;;5074396;28;20443;-78
2023/08/03 02:20:10;;;;;;;14.15;4.43;;;24.40;92.00;;;;;;5073904;28;20035;-77
2023/08/03 02:22:35;;;;;;;14.80;4.07;;;24.40;92.10;;;;;;5074877;28;20055;-77
2023/08/03 02:25:02;;;;;;;11.15;4.20;;;24.40;92.30;;;;;;5075061;28;20028;-77
2023/08/03 02:27:27;;;;;;;12.07;4.88;;;24.30;92.30;;;;;;5075491;28;20487;-77
2023/08/03 02:29:53;;;;;;;10.93;4.55;;;24.40;92.40;;;;;;5075166;28;20035;-77
2023/08/03 02:32:21;;;;;;;12.98;4.50;;;24.30;92.40;;;;;;5075403;28;20032;-76
2023/08/03 02:34:47;;;;;;;11.75;5.13;;;24.30;92.60;;;;;;5075245;28;20078;-77
2023/08/03 02:37:13;;;;;;;12.38;5.13;;;24.30;92.70;;;;;;5075283;28;20025;-77
2023/08/03 02:39:39;;;;;;;11.32;4.80;;;24.30;92.90;;;;;;5075278;28;20427;-77
2023/08/03 02:42:05;;;;;;;11.98;4.15;;;24.30;93.00;;;;;;5074825;28;20052;-77
2023/08/03 02:44:31;;;;;;;13.43;4.68;;;24.30;93.00;;;;;;5074777;28;20021;-76
2023/08/03 02:46:57;;;;;;;12.48;4.95;;;24.30;93.00;;;;;;5057205;28;20055;-78
2023/08/03 02:49:23;;;;;;;12.45;4.47;;;24.30;93.10;;;;;;5074971;28;20059;-77
2023/08/03 02:51:48;;;;;;;10.55;4.82;;;24.30;93.10;;;;;;5075004;28;20567;-78
2023/08/03 02:54:14;;;;;;;10.48;4.57;;;24.20;93.10;;;;;;5074418;28;20033;-78
2023/08/03 02:56:40;;;;;;;15.32;5.53;;;24.30;93.20;;;;;;5074501;28;20025;-78
2023/08/03 02:59:05;;;;;;;10.65;4.50;;;24.20;93.30;;;;;;5074641;28;20031;-77
2023/08/03 03:01:31;;;;;;;10.13;4.80;;;24.30;93.50;;;;;;5056844;28;20052;-77
2023/08/03 03:03:57;;;;;;;11.10;5.03;;;24.30;93.50;;;;;;5074799;28;20547;-77
2023/08/03 03:06:23;;;;;;;9.07;4.50;;;24.30;93.60;;;;;;5074224;28;20021;-76
2023/08/03 03:08:48;;;;;;;11.82;4.93;;;24.20;93.60;;;;;;5074574;28;20051;-77
2023/08/03 03:11:14;;;;;;;11.52;4.70;;;24.20;93.60;;;;;;5074350;28;20031;-78
2023/08/03 03:13:40;;;;;;;13.93;4.40;;;24.20;93.60;;;;;;5074473;28;20032;-77
2023/08/03 03:16:05;;;;;;;8.00;4.45;;;24.20;93.50;;;;;;5074164;28;20063;-77
2023/08/03 03:18:31;;;;;;;8.75;4.93;;;24.20;93.50;;;;;;5074541;28;20027;-78
2023/08/03 03:20:57;;;;;;;9.85;4.75;;;24.20;93.50;;;;;;5074102;28;20035;-78
2023/08/03 03:23:22;;;;;;;13.50;4.57;;;24.20;93.60;;;;;;5056561;28;20029;-78
2023/08/03 03:25:48;;;;;;;13.05;4.68;;;24.20;93.70;;;;;;5074060;28;20025;-77
2023/08/03 03:28:14;;;;;;;13.73;5.80;;;24.20;93.50;;;;;;5074357;28;20058;-77
2023/08/03 03:30:40;;;;;;;11.30;5.07;;;24.20;93.40;;;;;;5073995;28;20021;-77
2023/08/03 03:33:05;;;;;;;11.23;4.85;;;24.20;93.40;;;;;;5072979;28;20036;-77
2023/08/03 03:35:31;;;;;;;12.00;4.97;;;24.20;93.30;;;;;;5073695;28;20055;-77
2023/08/03 03:37:57;;;;;;;10.52;4.45;;;24.20;93.30;;;;;;5056232;28;20032;-76
2023/08/03 03:40:23;;;;;;;11.98;4.50;;;24.20;93.30;;;;;;5073822;28;20414;-77
2023/08/03 03:42:48;;;;;;;11.88;4.85;;;24.20;93.20;;;;;;5073394;28;20131;-76
2023/08/03 03:45:14;;;;;;;12.00;4.75;;;24.20;93.20;;;;;;5070278;28;20100;-76
2023/08/03 03:47:40;;;;;;;9.32;5.03;;;24.20;93.10;;;;;;5073568;28;20384;-75
2023/08/03 03:50:06;;;;;;;13.48;4.53;;;24.20;93.20;;;;;;5073856;28;20024;-77
2023/08/03 03:52:32;;;;;;;8.27;4.95;;;24.20;93.20;;;;;;5073830;28;20403;-77
2023/08/03 03:54:57;;;;;;;13.65;4.72;;;24.20;93.10;;;;;;5073735;28;20021;-78
2023/08/03 03:57:23;;;;;;;10.43;4.65;;;24.20;93.10;;;;;;5072988;28;20033;-77
2023/08/03 03:59:49;;;;;;;13.55;5.05;;;24.10;93.00;;;;;;5073353;28;20059;-76
2023/08/03 04:02:15;;;;;;;10.38;4.53;;;24.10;93.10;;;;;;5073491;28;20024;-77
2023/08/03 04:04:41;;;;;;;9.93;4.85;;;24.10;93.20;;;;;;5072988;28;20407;-77
2023/08/03 04:07:07;;;;;;;12.57;5.53;;;24.10;93.20;;;;;;5073097;28;20028;-75
2023/08/03 04:09:32;;;;;;;11.30;5.18;;;24.10;93.30;;;;;;5073357;28;20029;-77
2023/08/03 04:11:58;;;;;;;12.32;4.78;;;24.00;93.30;;;;;;5073712;28;20066;-77
2023/08/03 04:14:24;;;;;;;11.55;4.70;;;24.00;93.30;;;;;;5073086;28;20039;-76
2023/08/03 04:16:50;;;;;;;10.73;5.20;;;24.00;93.30;;;;;;5055027;28;20097;-77
2023/08/03 04:19:16;;;;;;;15.38;5.28;;;24.00;93.30;;;;;;5072209;28;20055;-76
2023/08/03 04:21:41;;;;;;;14.10;5.03;;;24.00;93.30;;;;;;5072413;28;20048;-78
2023/08/03 04:24:07;;;;;;;13.32;4.75;;;24.00;93.40;;;;;;5073327;28;20025;-76
2023/08/03 04:26:33;;;;;;;14.18;4.82;;;24.00;93.40;;;;;;5072538;28;20119;-76
2023/08/03 04:28:59;;;;;;;8.10;4.80;;;23.90;93.50;;;;;;5072620;28;20033;-77
2023/08/03 04:31:27;;;;;;;8.85;5.22;;;23.90;93.50;;;;;;5071895;28;20016;-76
2023/08/03 04:33:53;;;;;;;11.35;4.95;;;23.90;93.50;;;;;;5071809;28;20178;-77
2023/08/03 04:36:18;;;;;;;10.18;5.20;;;23.90;93.50;;;;;;5072441;28;20099;-76
2023/08/03 04:38:44;;;;;;;9.85;4.90;;;23.90;93.60;;;;;;5071903;28;20033;-77
2023/08/03 04:41:10;;;;;;;11.77;4.68;;;23.90;93.60;;;;;;5069653;28;20083;-76
2023/08/03 04:43:35;;;;;;;16.00;5.30;;;23.90;93.60;;;;;;5069908;28;20058;-77
2023/08/03 04:46:01;;;;;;;15.52;5.43;;;23.90;93.60;;;;;;5072401;28;20025;-77
2023/08/03 04:48:27;;;;;;;12.70;5.30;;;23.90;93.50;;;;;;5072427;28;20086;-77
2023/08/03 04:50:53;;;;;;;10.85;4.78;;;23.90;93.50;;;;;;5072355;28;20036;-77
2023/08/03 04:53:18;;;;;;;10.23;5.45;;;24.00;93.50;;;;;;5072773;28;20104;-78
2023/08/03 04:55:45;;;;;;;14.50;5.63;;;24.00;93.50;;;;;;5072754;28;20108;-77
2023/08/03 04:58:10;;;;;;;11.27;5.53;;;24.00;93.50;;;;;;5072200;28;20029;-77
2023/08/03 05:00:36;;;;;;;10.90;5.60;;;24.00;93.50;;;;;;5071532;28;20088;-76
2023/08/03 05:03:02;;;;;;;15.23;6.03;;;24.10;93.50;;;;;;5072022;28;20025;-76
2023/08/03 05:05:28;;;;;;;11.10;4.85;;;24.10;93.40;;;;;;5072163;28;20032;-77
2023/08/03 05:07:53;;;;;;;12.95;5.25;;;24.20;93.30;;;;;;5054176;28;20066;-77
2023/08/03 05:10:19;;;;;;;12.45;5.75;;;24.20;93.20;;;;;;5071964;28;20092;-77
2023/08/03 05:12:45;;;;;;;10.73;4.90;;;24.30;93.20;;;;;;5072350;28;20027;-77
2023/08/03 05:15:10;;;;;;;13.20;5.15;;;24.30;93.20;;;;;;5072656;28;20048;-77
2023/08/03 05:17:36;;;;;;;14.90;5.72;;;24.30;93.20;;;;;;5072574;28;20025;-77
2023/08/03 05:20:02;;;;;;;17.65;6.53;;;24.30;93.20;;;;;;5071074;28;20055;-77
2023/08/03 05:22:28;;;;;;;13.68;5.68;;;24.30;93.20;;;;;;5072510;28;20137;-77
2023/08/03 05:24:54;;;;;;;14.05;5.43;;;24.30;93.20;;;;;;5072504;28;20095;-77
2023/08/03 05:27:19;;;;;;;10.52;4.97;;;24.30;93.20;;;;;;5072521;28;20031;-77
2023/08/03 05:29:45;;;;;;;14.55;5.13;;;24.30;93.30;;;;;;5071329;28;20079;-77
2023/08/03 05:32:11;;;;;;;10.32;4.70;;;24.30;93.20;;;;;;5072572;28;20024;-77
2023/08/03 05:34:37;;;;;;;14.52;5.65;;;24.30;93.20;;;;;;5072522;28;20051;-77
2023/08/03 05:37:04;;;;;;;18.15;4.97;;;24.30;93.10;;;;;;5072674;28;20027;-78
2023/08/03 05:39:29;;;;;;;9.57;4.68;;;24.30;93.10;;;;;;5072565;28;20112;-77
2023/08/03 05:41:55;;;;;;;13.60;4.95;;;24.30;93.00;;;;;;5072239;28;20119;-77
2023/08/03 05:44:21;;;;;;;14.05;4.78;;;24.30;93.00;;;;;;5072658;28;20021;-77
2023/08/03 05:46:47;;;;;;;14.45;5.22;;;24.30;93.00;;;;;;5058119;28;20028;-76
2023/08/03 05:49:13;;;;;;;14.77;5.20;;;24.30;92.90;;;;;;5076211;28;20025;-76
2023/08/03 05:51:41;;;;;;;13.02;4.95;;;24.40;92.80;;;;;;5076172;28;20496;-77
2023/08/03 05:54:18;;;;;;;17.38;6.13;;;24.40;92.80;;;;;;5075827;28;20066;-77
2023/08/03 05:56:45;;;;;;;8.80;4.70;;;24.40;92.70;;;;;;5076100;28;20052;-76
2023/08/03 05:59:21;;;;;;;13.43;5.00;;;24.40;92.60;;;;;;5075956;28;20025;-77
2023/08/03 06:01:51;;;;;;;10.93;4.55;;;24.40;92.60;;;;;;5070020;28;20025;-77
2023/08/03 06:04:18;;;;;;;10.80;4.70;;;24.40;92.60;;;;;;5075297;28;20151;-75
2023/08/03 06:06:45;;;;;;;12.70;4.50;;;24.50;92.70;;;;;;5075891;28;20065;-76
2023/08/03 06:09:12;;;;;;;10.60;4.90;;;24.50;92.70;;;;;;5075892;28;20017;-76
2023/08/03 06:11:39;;;;;;;15.32;5.25;;;24.50;92.70;;;;;;5075764;28;20070;-76
2023/08/03 06:14:10;;;;;;;15.82;4.80;;;24.50;92.70;;;;;;5075666;28;20496;-76
2023/08/03 06:16:36;;;;;;;9.25;4.63;;;24.50;92.50;;;;;;5075372;28;20477;-76
2023/08/03 06:19:01;;;;;;;11.98;4.70;;;24.60;92.40;;;;;;5057264;28;20025;-76
2023/08/03 06:21:28;;;;;;;13.07;4.80;;;24.60;92.50;;;;;;5057519;28;20036;-76
2023/08/03 06:23:58;;;;;;;13.48;5.05;;;24.60;92.50;;;;;;5057601;28;20392;-76
2023/08/03 06:26:25;;;;;;;11.80;4.57;;;24.60;92.50;;;;;;5076861;28;20020;-75
2023/08/03 06:28:54;;;;;;;12.85;5.60;;;24.70;92.40;;;;;;5076459;28;20048;-77
2023/08/03 06:31:27;;;;;;;12.18;4.85;;;24.70;92.40;;;;;;5076124;28;20067;-75
2023/08/03 06:33:53;;;;;;;14.48;5.25;;;24.70;92.40;;;;;;5075200;28;20047;-76
2023/08/03 06:36:23;;;;;;;10.30;4.90;;;24.80;92.40;;;;;;5056871;28;20025;-76
2023/08/03 06:38:49;;;;;;;12.02;5.20;;;24.70;92.40;;;;;;5075151;28;20032;-76
2023/08/03 06:41:15;;;;;;;12.30;4.90;;;24.80;92.40;;;;;;5074928;28;20023;-76
2023/08/03 06:43:41;;;;;;;14.52;4.90;;;24.80;92.30;;;;;;5075003;28;20028;-75
2023/08/03 06:46:06;;;;;;;19.50;5.07;;;24.90;92.30;;;;;;5075155;28;20465;-75
2023/08/03 06:48:33;;;;;;;10.43;4.75;;;24.90;92.30;;;;;;5074776;28;20029;-76
2023/08/03 06:51:01;;;;;;;11.52;5.05;;;24.90;92.30;;;;;;5075022;28;20082;-75
2023/08/03 06:53:28;;;;;;;13.45;4.70;;;24.90;92.40;;;;;;5074770;28;20033;-75
2023/08/03 06:55:54;;;;;;;9.30;4.55;;;25.00;92.40;;;;;;5074514;28;20017;-75
2023/08/03 06:58:19;;;;;;;10.45;4.93;;;25.00;92.40;;;;;;5074898;28;20040;-76
2023/08/03 07:00:46;;;;;;;14.77;5.20;;;25.00;92.40;;;;;;5074550;28;20025;-76
2023/08/03 07:03:13;;;;;;;10.40;5.10;;;25.00;92.40;;;;;;5073130;28;20056;-75
2023/08/03 07:05:43;;;;;;;13.02;5.10;;;25.00;92.40;;;;;;5061557;28;20746;-75
2023/08/03 07:08:09;;;;;;;15.60;4.93;;;25.00;92.60;;;;;;5053948;28;20078;-76
2023/08/03 07:10:36;;;;;;;14.02;5.18;;;25.00;92.60;;;;;;5054021;28;20329;-76
2023/08/03 07:13:03;;;;;;;13.13;5.93;;;25.00;92.50;;;;;;5054244;28;20044;-76
2023/08/03 07:15:33;;;;;;;13.93;5.30;;;25.00;92.40;;;;;;5054160;28;20025;-76
2023/08/03 07:18:03;;;;;;;9.65;4.88;;;25.00;92.40;;;;;;5054238;28;20083;-75
2023/08/03 07:20:29;;;;;;;15.55;5.68;;;25.10;92.50;;;;;;5053869;28;20027;-74
2023/08/03 07:22:54;;;;;;;11.45;4.82;;;25.10;92.70;;;;;;5053620;28;20037;-76
2023/08/03 07:25:20;;;;;;;11.65;5.22;;;25.10;92.80;;;;;;5053404;28;20049;-76
2023/08/03 07:27:46;;;;;;;13.65;4.75;;;25.10;92.90;;;;;;5053327;28;20395;-76
2023/08/03 07:30:12;;;;;;;13.15;5.38;;;25.00;92.80;;;;;;5053874;28;20025;-75
2023/08/03 07:32:38;;;;;;;12.27;4.63;;;25.00;92.80;;;;;;5053033;28;20060;-76
2023/08/03 07:35:04;;;;;;;10.40;4.78;;;25.00;92.90;;;;;;5035060;28;20057;-76
2023/08/03 07:37:30;;;;;;;16.80;5.65;;;25.00;92.90;;;;;;5052918;28;20013;-76
2023/08/03 07:39:56;;;;;;;14.70;5.15;;;25.00;92.90;;;;;;5053086;28;20028;-75
2023/08/03 07:42:22;;;;;;;13.23;5.40;;;25.10;93.10;;;;;;5052750;28;20102;-75
2023/08/03 07:44:51;;;;;;;14.60;5.65;;;25.10;93.20;;;;;;5053059;28;20025;-75
2023/08/03 07:47:16;;;;;;;12.50;5.03;;;25.10;93.10;;;;;;5054023;28;20477;-75
2023/08/03 07:49:42;;;;;;;13.13;5.05;;;25.10;93.20;;;;;;5053750;28;20021;-75
2023/08/03 07:52:08;;;;;;;21.80;5.55;;;25.10;93.20;;;;;;5053717;28;20013;-76
2023/08/03 07:54:34;;;;;;;17.88;5.28;;;25.10;93.50;;;;;;5053625;28;20060;-77
2023/08/03 07:56:59;;;;;;;24.13;6.47;;;25.20;93.70;;;;;;5052876;28;20028;-77
2023/08/03 07:59:25;;;;;;;18.20;5.03;;;25.20;94.00;;;;;;5053917;28;20029;-76
2023/08/03 08:01:51;;;;;;;12.13;4.82;;;25.30;94.00;;;;;;5053588;28;20096;-76
2023/08/03 08:04:18;;;;;;;14.32;4.93;;;25.30;94.10;;;;;;5053733;28;20025;-76
2023/08/03 08:06:44;;;;;;;13.93;5.38;;;25.30;94.00;;;;;;5053454;28;20473;-76
2023/08/03 08:09:10;;;;;;;11.30;4.68;;;25.40;94.00;;;;;;5052961;28;20100;-76
2023/08/03 08:11:36;;;;;;;15.18;5.15;;;25.40;94.00;;;;;;5053514;28;20103;-76
2023/08/03 08:14:02;;;;;;;16.55;5.70;;;25.40;93.90;;;;;;5053247;28;20071;-76
2023/08/03 08:16:28;;;;;;;19.73;5.20;;;25.40;93.90;;;;;;5053532;28;20048;-76
2023/08/03 08:18:54;;;;;;;18.45;5.20;;;25.40;93.90;;;;;;5053010;28;20539;-76
2023/08/03 08:21:19;;;;;;;14.27;5.22;;;25.40;93.70;;;;;;5053183;28;20021;-75
2023/08/03 08:23:45;;;;;;;14.93;5.25;;;25.50;93.70;;;;;;5053346;28;20433;-76
2023/08/03 08:26:16;;;;;;;12.73;5.10;;;25.50;93.70;;;;;;5051955;28;20067;-76
2023/08/03 08:28:44;;;;;;;13.63;4.97;;;25.50;93.80;;;;;;5052903;28;20083;-76
2023/08/03 08:31:10;;;;;;;16.13;5.28;;;25.50;93.70;;;;;;5053095;28;20055;-76
2023/08/03 08:33:36;;;;;;;11.93;5.47;;;25.50;93.80;;;;;;5053778;28;20041;-76
2023/08/03 08:36:03;;;;;;;13.25;5.00;;;25.60;93.70;;;;;;5035360;28;20370;-76
2023/08/03 08:38:30;;;;;;;9.93;5.03;;;25.60;93.50;;;;;;5053459;28;20029;-76
2023/08/03 08:40:56;;;;;;;19.17;5.07;;;25.60;93.40;;;;;;5053213;28;20032;-77
2023/08/03 08:43:22;;;;;;;11.55;4.60;;;25.60;93.00;;;;;;5052945;28;20053;-77
2023/08/03 08:45:48;;;;;;;14.68;5.28;;;25.60;93.00;;;;;;5052799;28;20036;-76
2023/08/03 08:48:14;;;;;;;11.23;5.05;;;25.70;93.10;;;;;;5053425;28;20032;-77
2023/08/03 08:50:41;;;;;;;14.00;5.10;;;25.70;93.20;;;;;;5052808;28;20099;-76
2023/08/03 08:53:07;;;;;;;14.38;4.90;;;25.60;93.20;;;;;;5035304;28;20052;-76
2023/08/03 08:55:33;;;;;;;12.43;4.93;;;25.70;93.20;;;;;;5053147;28;20029;-75
2023/08/03 08:57:59;;;;;;;14.88;5.20;;;25.70;93.20;;;;;;5053068;28;20044;-75
2023/08/03 09:00:26;;;;;;;12.52;4.75;;;25.60;93.10;;;;;;5052678;28;20516;-75
2023/08/03 09:03:01;;;;;;;11.52;4.75;;;25.60;93.20;;;;;;5052767;28;20021;-75
2023/08/03 09:05:28;;;;;;;15.05;5.65;;;25.70;93.20;;;;;;5052545;28;20570;-75
2023/08/03 09:08:00;;;;;;;12.48;5.10;;;25.60;93.40;;;;;;5052859;28;20026;-76
2023/08/03 09:10:26;;;;;;;20.58;5.03;;;25.60;93.30;;;;;;5052511;28;20099;-76
2023/08/03 09:12:52;;;;;;;10.88;4.72;;;25.60;93.20;;;;;;5052539;28;20108;-76
2023/08/03 09:15:17;;;;;;;13.98;5.55;;;25.60;93.10;;;;;;5052481;28;20032;-76
2023/08/03 09:17:48;;;;;;;12.10;5.63;;;25.70;93.10;;;;;;5052373;28;20021;-76
2023/08/03 09:20:27;;;;;;;15.13;4.97;;;25.70;93.00;;;;;;5055929;28;20028;-76
2023/08/03 09:22:53;;;;;;;20.45;4.72;;;25.60;92.90;;;;;;5056803;28;20025;-76
2023/08/03 09:25:18;;;;;;;17.35;4.88;;;25.70;92.90;;;;;;5056472;28;20039;-76
2023/08/03 09:27:49;;;;;;;15.00;4.68;;;25.70;92.90;;;;;;5056625;28;20094;-76
2023/08/03 09:30:15;;;;;;;11.97;4.63;;;25.60;92.80;;;;;;5065431;28;20086;-76
2023/08/03 09:32:42;;;;;;;11.98;4.25;;;25.70;92.80;;;;;;5076212;28;20291;-76
2023/08/03 09:35:24;;;;;;;10.23;4.65;;;25.60;92.80;;;;;;5076103;28;20032;-76
2023/08/03 09:37:50;;;;;;;;;;;25.70;92.70;;;;;;5056796;28;20095;-75
2023/08/03 09:40:17;;;;;;;15.68;5.72;;;25.60;92.60;;;;;;5055001;28;19947;-76
2023/08/03 09:42:44;;;;;;;10.60;4.75;;;25.70;92.70;;;;;;5053939;28;20055;-76
2023/08/03 09:45:11;;;;;;;13.60;4.78;;;25.70;92.80;;;;;;5054049;28;20021;-75
2023/08/03 09:47:40;;;;;;;11.43;4.72;;;25.70;92.90;;;;;;5054038;28;20025;-77
2023/08/03 09:50:09;;;;;;;11.88;4.68;;;25.60;92.80;;;;;;5053895;28;20024;-76
2023/08/03 09:52:47;;;;;;;11.48;4.50;;;25.70;92.80;;;;;;5053687;28;20116;-76
2023/08/03 09:55:20;;;;;;;11.27;4.70;;;25.60;92.70;;;;;;5054807;28;20021;-76
2023/08/03 09:58:21;;;;;;;12.23;4.63;;;25.70;92.70;;;;;;5055941;28;20533;-77
2023/08/03 10:00:49;;;;;;;13.65;4.57;;;25.60;92.80;;;;;;5023580;28;20029;-77
2023/08/03 10:03:18;;;;;;;9.80;4.30;;;25.60;92.60;;;;;;5055811;28;20027;-76
2023/08/03 10:05:49;;;;;;;13.50;4.30;;;25.70;92.40;;;;;;5055316;28;20024;-77
2023/08/03 10:08:27;;;;;;;11.50;4.70;;;25.70;92.60;;;;;;5055942;28;20029;-73
2023/08/03 10:10:59;;;;;;;9.00;4.80;;;25.70;92.70;;;;;;5055759;28;20017;-76
2023/08/03 10:13:27;;;;;;;10.23;4.50;;;25.70;92.70;;;;;;5055109;28;20082;-77
2023/08/03 10:15:53;;;;;;;10.90;4.50;;;25.70;92.70;;;;;;5055668;28;20083;-78
2023/08/03 10:18:20;;;;;;;13.95;4.53;;;25.70;92.80;;;;;;5055517;28;20096;-76
2023/08/03 10:20:47;;;;;;;13.45;4.60;;;25.80;92.80;;;;;;5055738;28;20046;-77
2023/08/03 10:23:19;;;;;;;9.05;3.83;;;25.80;92.90;;;;;;5055381;28;20079;-75
2023/08/03 10:25:56;;;;;;;10.55;4.32;;;25.80;92.60;;;;;;5055274;28;20021;-77
2023/08/03 10:28:25;;;;;;;8.52;4.28;;;25.80;92.80;;;;;;5055199;28;20021;-77
2023/08/03 10:31:11;;;;;;;11.50;3.92;;;25.80;92.80;;;;;;5054614;28;20032;-77
2023/08/03 10:33:52;;;;;;;11.20;4.57;;;25.90;92.90;;;;;;5055253;28;20071;-77
2023/08/03 10:36:29;;;;;;;11.70;4.35;;;25.90;92.90;;;;;;5055344;28;20021;-78
2023/08/03 10:39:09;;;;;;;9.85;4.13;;;25.90;92.90;;;;;;5054839;28;20067;-76
2023/08/03 10:41:46;;;;;;;16.25;5.13;;;25.90;93.00;;;;;;5055040;28;20076;-77
2023/08/03 10:44:12;;;;;;;14.10;5.00;;;26.00;93.30;;;;;;5055329;28;20025;-77
2023/08/03 10:46:48;;;;;;;10.52;4.22;;;26.00;93.10;;;;;;5054746;28;20392;-76
2023/08/03 10:49:20;;;;;;;13.15;4.20;;;26.00;93.20;;;;;;5055409;28;20531;-77
2023/08/03 10:52:12;;;;;;;;;;;26.10;92.90;;;;;;5055403;28;20021;-77
2023/08/03 10:54:38;;;;;;;13.02;4.18;;;26.10;93.00;;;;;;5056131;28;19920;-78
2023/08/03 10:57:07;;;;;;;9.77;4.60;;;26.10;93.10;;;;;;5054887;28;20024;-77
2023/08/03 10:59:37;;;;;;;11.18;4.20;;;26.10;93.10;;;;;;5054797;28;20055;-77
2023/08/03 11:02:33;;;;;;;11.48;4.38;;;26.20;93.10;;;;;;5054729;28;20025;-77
2023/08/03 11:05:00;;;;;;;14.15;4.50;;;26.20;92.90;;;;;;5054598;28;20503;-78
2023/08/03 11:07:33;;;;;;;9.85;4.25;;;26.20;92.80;;;;;;5054666;28;20025;-76
2023/08/03 11:10:09;;;;;;;7.88;4.30;;;26.20;92.90;;;;;;5054480;28;20021;-76
2023/08/03 11:12:35;;;;;;;16.60;4.68;;;26.20;92.90;;;;;;5054500;28;20465;-77
2023/08/03 11:15:02;;;;;;;11.80;4.53;;;26.20;92.70;;;;;;5054411;28;20480;-77
2023/08/03 11:17:30;;;;;;;13.98;4.35;;;26.20;92.40;;;;;;5054346;28;20241;-77
2023/08/03 11:19:57;;;;;;;11.70;4.40;;;26.20;92.40;;;;;;5054635;28;20025;-77
2023/08/03 11:22:24;;;;;;;15.25;4.47;;;26.30;92.30;;;;;;5054480;28;20086;-77
2023/08/03 11:24:59;;;;;;;10.07;4.13;;;26.30;92.10;;;;;;5054499;28;20025;-76
2023/08/03 11:27:26;;;;;;;10.88;4.70;;;26.30;91.60;;;;;;5054298;28;20024;-77
2023/08/03 11:29:52;;;;;;;10.40;4.20;;;26.30;91.50;;;;;;5054354;28;20334;-78
2023/08/03 11:32:35;;;;;;;13.77;4.88;;;26.40;91.20;;;;;;5036591;28;20028;-77
2023/08/03 11:35:03;;;;;;;12.48;4.65;;;26.30;91.10;;;;;;5054148;28;20032;-77
2023/08/03 11:37:42;;;;;;;8.65;3.97;;;26.40;90.70;;;;;;5036555;28;20048;-77
2023/08/03 11:40:11;;;;;;;9.38;4.40;;;26.40;90.50;;;;;;5036113;28;20032;-75
2023/08/03 11:42:43;;;;;;;9.80;3.80;;;26.30;90.30;;;;;;5053033;28;20051;-76
2023/08/03 11:45:09;;;;;;;;;;;26.40;90.60;;;;;;5036284;28;20044;-75
2023/08/03 11:47:42;;;;;;;11.63;4.15;;;26.40;90.80;;;;;;5036090;28;19908;-76
2023/08/03 11:50:08;;;;;;;9.73;4.00;;;26.40;90.90;;;;;;5036353;28;20495;-76
2023/08/03 11:52:36;;;;;;;16.17;4.20;;;26.40;91.00;;;;;;5054121;28;20079;-75
2023/08/03 11:55:02;;;;;;;9.88;4.70;;;26.40;90.90;;;;;;5053766;28;20100;-74
2023/08/03 12:00:16;;;;;;;11.93;3.85;;;26.50;90.30;;;;;;5052797;28;20417;-76
2023/08/03 12:02:43;;;;;;;14.18;4.07;;;26.50;89.40;;;;;;5051045;28;20033;-77
2023/08/03 12:05:10;;;;;;;11.07;4.18;;;26.60;89.10;;;;;;5050771;28;20025;-76
2023/08/03 12:07:36;;;;;;;11.93;4.10;;;26.60;88.20;;;;;;5051942;28;20043;-76
2023/08/03 12:10:12;;;;;;;11.45;3.78;;;26.60;88.90;;;;;;5053483;28;20029;-77
2023/08/03 12:12:39;;;;;;;12.25;4.28;;;26.60;89.00;;;;;;5053314;28;20548;-75
2023/08/03 12:15:06;;;;;;;9.88;3.97;;;26.60;89.30;;;;;;5053409;28;20033;-74
2023/08/03 12:17:32;;;;;;;10.45;4.13;;;26.60;89.70;;;;;;5053170;28;20024;-77
2023/08/03 12:19:58;;;;;;;13.82;4.38;;;26.70;90.00;;;;;;5053505;28;20028;-77
2023/08/03 12:22:23;;;;;;;10.30;4.15;;;26.70;90.40;;;;;;5053126;28;20052;-76
2023/08/03 12:24:49;;;;;;;10.95;4.47;;;26.70;90.20;;;;;;5053127;28;20056;-75
2023/08/03 12:27:15;;;;;;;12.93;3.75;;;26.70;90.30;;;;;;5053383;28;20079;-75
2023/08/03 12:29:41;;;;;;;13.15;4.43;;;26.80;90.40;;;;;;5052797;28;20052;-75
2023/08/03 12:32:07;;;;;;;12.98;4.53;;;26.70;90.40;;;;;;5052933;28;20108;-76
2023/08/03 12:34:33;;;;;;;15.77;3.92;;;26.70;90.70;;;;;;5035070;28;20090;-78
2023/08/03 12:36:59;;;;;;;11.20;4.20;;;26.80;90.40;;;;;;5053010;28;20029;-77
2023/08/03 12:39:24;;;;;;;12.05;4.15;;;26.80;90.60;;;;;;5052474;28;20100;-75
2023/08/03 12:41:50;;;;;;;11.98;4.15;;;26.80;90.50;;;;;;5052588;28;20078;-75